Time;durP1;ratioP1;P1;durP2;ratioP2;P2;SDS_P1;SDS_P2;PMS_P1;PMS_P2;Temp;Humidity;BMP_temperature;BMP_pressure;BME280_temperature;BME280_humidity;BME280_pressure;Samples;Min_cycle;Max_cycle;Signal;HPM_P1;HPM_P2
2023/10/19 00:00:38;;;;;;;26.30;16.33;;;8.40;99.90;;;;;;5003830;28;20057;-75
2023/10/19 00:03:06;;;;;;;26.58;17.33;;;8.30;99.90;;;;;;5003951;28;20045;-76
2023/10/19 00:05:35;;;;;;;26.13;16.95;;;8.40;99.90;;;;;;5005671;28;20038;-76
2023/10/19 00:08:36;;;;;;;25.77;17.55;;;8.40;99.90;;;;;;5000671;28;20148;-76
2023/10/19 00:11:08;;;;;;;28.15;19.60;;;8.30;99.90;;;;;;5025600;28;20120;-76
2023/10/19 00:13:40;;;;;;;28.85;18.17;;;8.30;99.90;;;;;;5008462;28;20052;-76
2023/10/19 00:16:13;;;;;;;25.88;18.05;;;8.30;99.90;;;;;;5007692;28;20051;-76
2023/10/19 00:18:42;;;;;;;28.23;20.33;;;8.20;99.90;;;;;;4989744;28;20132;-77
2023/10/19 00:21:23;;;;;;;33.13;18.83;;;8.20;99.90;;;;;;4989448;28;20080;-76
2023/10/19 00:23:56;;;;;;;30.20;19.25;;;8.20;99.90;;;;;;5003498;28;20053;-75
2023/10/19 00:26:26;;;;;;;32.58;19.42;;;8.30;99.90;;;;;;5024420;28;20127;-77
2023/10/19 00:28:59;;;;;;;33.35;20.80;;;8.20;99.90;;;;;;5001349;28;21777;-78
2023/10/19 00:31:27;;;;;;;35.42;21.00;;;8.20;99.90;;;;;;5002939;28;20277;-78
2023/10/19 00:33:56;;;;;;;34.33;21.73;;;8.20;99.90;;;;;;5002498;28;20046;-77
2023/10/19 00:36:23;;;;;;;30.95;19.67;;;8.20;99.90;;;;;;5004898;28;20092;-77
2023/10/19 00:41:21;;;;;;;36.53;22.40;;;8.20;99.90;;;;;;5003932;28;20042;-78
2023/10/19 00:43:57;;;;;;;30.10;20.33;;;8.20;99.90;;;;;;4991908;28;20051;-79
2023/10/19 00:46:26;;;;;;;32.40;21.10;;;8.30;99.90;;;;;;5005416;28;20037;-78
2023/10/19 00:48:58;;;;;;;35.58;21.48;;;8.20;99.90;;;;;;5022622;28;20054;-79
2023/10/19 00:54:09;;;;;;;35.33;22.73;;;8.20;99.90;;;;;;5000608;28;20703;-79
2023/10/19 00:56:35;;;;;;;31.50;20.83;;;8.20;99.90;;;;;;4986686;28;20553;-78
2023/10/19 00:59:14;;;;;;;34.88;22.17;;;8.20;99.90;;;;;;5020959;28;20095;-78
2023/10/19 01:01:44;;;;;;;36.00;21.35;;;8.30;99.90;;;;;;4999102;28;20076;-77
2023/10/19 01:04:14;;;;;;;37.08;22.42;;;8.30;99.90;;;;;;5002755;28;20057;-76
2023/10/19 01:06:44;;;;;;;31.23;20.67;;;8.30;99.90;;;;;;5001683;28;20452;-77
2023/10/19 01:09:14;;;;;;;40.03;24.15;;;8.20;99.90;;;;;;5019760;28;20439;-78
2023/10/19 01:11:49;;;;;;;37.80;22.83;;;8.30;99.90;;;;;;5002247;28;20046;-79
2023/10/19 01:14:21;;;;;;;36.97;23.13;;;8.20;99.90;;;;;;5001610;28;20053;-79
2023/10/19 01:16:49;;;;;;;39.17;23.20;;;8.30;99.90;;;;;;5019375;28;20071;-79
2023/10/19 01:19:18;;;;;;;38.13;24.38;;;8.20;99.90;;;;;;5004192;28;20048;-78
2023/10/19 01:21:51;;;;;;;39.90;23.35;;;8.30;99.90;;;;;;5005806;28;20053;-78
2023/10/19 01:24:27;;;;;;;43.65;24.77;;;8.20;99.90;;;;;;4999691;28;20045;-78
2023/10/19 01:26:53;;;;;;;35.88;23.25;;;8.20;99.90;;;;;;5002567;28;20075;-78
2023/10/19 01:29:26;;;;;;;37.50;24.05;;;8.20;99.90;;;;;;4988526;28;20033;-80
2023/10/19 01:32:07;;;;;;;41.28;24.85;;;8.20;99.90;;;;;;5001948;28;20501;-80
2023/10/19 01:34:36;;;;;;;34.97;23.00;;;8.20;99.90;;;;;;5025780;28;20516;-79
2023/10/19 01:37:05;;;;;;;37.60;24.33;;;8.20;99.90;;;;;;5005009;28;20046;-78
2023/10/19 01:39:32;;;;;;;40.50;25.15;;;8.20;99.90;;;;;;5000627;28;20042;-78
2023/10/19 01:41:58;;;;;;;37.65;25.10;;;8.20;99.90;;;;;;5004470;28;20045;-78
2023/10/19 01:44:25;;;;;;;39.58;25.25;;;8.20;99.90;;;;;;5005639;28;20474;-78
2023/10/19 01:46:50;;;;;;;43.33;25.27;;;8.30;99.90;;;;;;4999189;28;20120;-77
2023/10/19 01:49:25;;;;;;;43.53;26.02;;;8.20;99.90;;;;;;4985902;28;20156;-76
2023/10/19 01:51:53;;;;;;;46.88;25.42;;;8.20;99.90;;;;;;4997770;28;20436;-78
2023/10/19 01:54:23;;;;;;;43.63;26.35;;;8.20;99.90;;;;;;5002273;28;20128;-78
2023/10/19 01:56:55;;;;;;;47.53;26.95;;;8.20;99.90;;;;;;5020583;28;20133;-77
2023/10/19 01:59:27;;;;;;;45.03;25.80;;;8.20;99.90;;;;;;5016744;28;20057;-77
2023/10/19 02:01:54;;;;;;;42.37;25.70;;;8.20;99.90;;;;;;5018116;28;20570;-79
2023/10/19 02:04:21;;;;;;;42.13;24.67;;;8.20;99.90;;;;;;5023454;28;20096;-79
2023/10/19 02:06:48;;;;;;;47.13;25.98;;;8.20;99.90;;;;;;5016724;28;20455;-78
2023/10/19 02:11:46;;;;;;;49.90;27.52;;;8.30;99.90;;;;;;5021714;28;20084;-78
2023/10/19 02:14:15;;;;;;;49.00;28.83;;;8.20;99.90;;;;;;5011126;28;20413;-79
2023/10/19 02:16:43;;;;;;;40.88;25.75;;;8.20;99.90;;;;;;5019073;28;20029;-79
2023/10/19 02:19:09;;;;;;;41.88;25.65;;;8.30;99.90;;;;;;5024701;28;20500;-78
2023/10/19 02:21:39;;;;;;;47.53;26.80;;;8.30;99.90;;;;;;5021907;28;20033;-77
2023/10/19 02:24:07;;;;;;;42.72;25.00;;;8.30;99.90;;;;;;5018426;28;20041;-79
2023/10/19 02:26:33;;;;;;;37.10;23.23;;;8.30;99.90;;;;;;5016179;28;21190;-78
2023/10/19 02:28:59;;;;;;;40.13;25.77;;;8.20;99.90;;;;;;5018452;28;20046;-78
2023/10/19 02:31:26;;;;;;;38.97;22.20;;;8.30;99.90;;;;;;5016764;28;20040;-77
2023/10/19 02:33:58;;;;;;;35.30;22.08;;;8.30;99.90;;;;;;5000770;28;20044;-78
2023/10/19 02:36:28;;;;;;;36.30;22.33;;;8.30;99.90;;;;;;5019926;28;20033;-78
2023/10/19 02:38:58;;;;;;;36.53;22.27;;;8.30;99.90;;;;;;5021003;28;20095;-80
2023/10/19 02:41:24;;;;;;;34.60;21.13;;;8.30;99.90;;;;;;5015976;28;20073;-78
2023/10/19 02:46:38;;;;;;;31.02;19.63;;;8.30;99.90;;;;;;5025173;28;20045;-80
2023/10/19 02:49:11;;;;;;;31.15;19.00;;;8.30;99.90;;;;;;4986406;28;20303;-80
2023/10/19 02:51:38;;;;;;;30.70;19.08;;;8.30;99.90;;;;;;5002555;28;20084;-80
2023/10/19 02:54:05;;;;;;;31.60;17.95;;;8.40;99.90;;;;;;4997499;28;20543;-82
2023/10/19 02:56:31;;;;;;;28.13;17.23;;;8.30;99.90;;;;;;5005117;28;20071;-81
2023/10/19 02:59:03;;;;;;;30.83;17.65;;;8.30;99.90;;;;;;4999559;28;20053;-80
2023/10/19 03:01:31;;;;;;;29.17;18.00;;;8.40;99.90;;;;;;5000172;28;20550;-81
2023/10/19 03:03:59;;;;;;;30.17;16.95;;;8.40;99.90;;;;;;5000121;28;20488;-79
2023/10/19 03:06:32;;;;;;;26.25;16.80;;;8.40;99.90;;;;;;4998739;28;20068;-80
2023/10/19 03:09:01;;;;;;;25.27;16.52;;;8.40;99.90;;;;;;5003638;28;20045;-79
2023/10/19 03:11:27;;;;;;;24.58;15.70;;;8.40;99.90;;;;;;5003970;28;20045;-78
2023/10/19 03:13:57;;;;;;;29.52;16.83;;;8.40;99.90;;;;;;4997094;28;20056;-79
2023/10/19 03:16:30;;;;;;;24.83;15.25;;;8.40;99.90;;;;;;4982142;28;20420;-77
2023/10/19 03:18:56;;;;;;;29.38;16.05;;;8.50;99.90;;;;;;4982053;28;20484;-77
2023/10/19 03:21:26;;;;;;;26.25;15.88;;;8.50;99.90;;;;;;5002159;28;20061;-77
2023/10/19 03:23:53;;;;;;;25.00;15.27;;;8.50;99.90;;;;;;4999381;28;20068;-77
2023/10/19 03:26:23;;;;;;;24.77;14.40;;;8.50;99.90;;;;;;5002478;28;20047;-77
2023/10/19 03:28:55;;;;;;;25.30;14.50;;;8.50;99.90;;;;;;5000750;28;20077;-78
2023/10/19 03:31:25;;;;;;;22.02;13.98;;;8.50;99.90;;;;;;5001850;28;20516;-77
2023/10/19 03:33:54;;;;;;;24.20;14.20;;;8.50;99.90;;;;;;5000349;28;20044;-77
2023/10/19 03:36:24;;;;;;;21.65;13.70;;;8.50;99.90;;;;;;5003204;28;20045;-77
2023/10/19 03:38:52;;;;;;;19.23;11.82;;;8.60;99.90;;;;;;5001139;28;20046;-77
2023/10/19 03:41:21;;;;;;;18.40;12.98;;;8.60;99.90;;;;;;5000988;28;20120;-77
2023/10/19 03:43:49;;;;;;;19.23;11.90;;;8.60;99.90;;;;;;5001297;28;20049;-77
2023/10/19 03:46:31;;;;;;;21.02;12.63;;;8.60;99.90;;;;;;5001301;28;20074;-77
2023/10/19 03:48:59;;;;;;;21.92;12.82;;;8.60;99.90;;;;;;5000450;28;20111;-78
2023/10/19 03:51:39;;;;;;;23.98;14.13;;;8.60;99.90;;;;;;5003757;28;20091;-80
2023/10/19 03:54:20;;;;;;;20.65;13.02;;;8.60;99.90;;;;;;5001532;28;20048;-80
2023/10/19 03:56:47;;;;;;;23.08;13.30;;;8.60;99.90;;;;;;5004441;28;20432;-80
2023/10/19 03:59:13;;;;;;;21.60;13.48;;;8.70;99.90;;;;;;4999641;28;20095;-80
2023/10/19 04:01:39;;;;;;;21.35;13.73;;;8.70;99.90;;;;;;4998686;28;20440;-79
2023/10/19 04:04:05;;;;;;;21.70;13.43;;;8.70;99.90;;;;;;4984665;28;20040;-80
2023/10/19 04:06:30;;;;;;;25.73;14.45;;;8.70;99.90;;;;;;4999226;28;20058;-79
2023/10/19 04:08:56;;;;;;;22.65;14.07;;;8.70;99.90;;;;;;5001024;28;20507;-80
2023/10/19 04:11:22;;;;;;;22.95;14.65;;;8.70;99.90;;;;;;4996745;28;20046;-79
2023/10/19 04:13:52;;;;;;;26.13;15.07;;;8.70;99.90;;;;;;4998128;28;20037;-79
2023/10/19 04:16:19;;;;;;;23.83;14.95;;;8.70;99.90;;;;;;4998155;28;20034;-77
2023/10/19 04:18:44;;;;;;;23.23;13.88;;;8.70;99.90;;;;;;4999536;28;20129;-78
2023/10/19 04:21:10;;;;;;;26.55;16.00;;;8.80;99.90;;;;;;5006470;28;20136;-78
2023/10/19 04:23:36;;;;;;;24.80;14.95;;;8.70;99.90;;;;;;5003933;28;20045;-79
2023/10/19 04:26:10;;;;;;;24.08;15.40;;;8.80;99.90;;;;;;5001009;28;20052;-82
2023/10/19 04:28:55;;;;;;;29.15;16.40;;;8.70;99.90;;;;;;5015912;28;20057;-80
2023/10/19 04:31:23;;;;;;;27.20;17.00;;;8.80;99.90;;;;;;5027428;28;20417;-81
2023/10/19 04:33:49;;;;;;;30.98;17.30;;;8.80;99.90;;;;;;4999104;28;20375;-82
2023/10/19 04:36:16;;;;;;;28.40;16.38;;;8.80;99.90;;;;;;5021537;28;20045;-80
2023/10/19 04:38:43;;;;;;;26.70;16.05;;;8.80;99.90;;;;;;5000625;28;20049;-79
2023/10/19 04:41:10;;;;;;;25.27;15.27;;;8.80;99.90;;;;;;4998850;28;20049;-82
2023/10/19 04:43:37;;;;;;;26.90;16.88;;;8.80;99.90;;;;;;5002719;28;20527;-82
2023/10/19 04:46:13;;;;;;;31.67;17.75;;;8.90;99.90;;;;;;4986145;28;20045;-78
2023/10/19 04:48:39;;;;;;;27.70;16.50;;;8.80;99.90;;;;;;5019210;28;20053;-83
2023/10/19 04:51:07;;;;;;;30.17;16.85;;;8.90;99.90;;;;;;5003736;28;20254;-78
2023/10/19 04:53:32;;;;;;;26.88;15.57;;;8.90;99.90;;;;;;5004289;28;20041;-79
2023/10/19 04:56:00;;;;;;;24.55;15.18;;;8.90;99.90;;;;;;4999539;28;20057;-80
2023/10/19 04:58:27;;;;;;;28.17;15.63;;;8.90;99.90;;;;;;5018703;28;20057;-81
2023/10/19 05:00:53;;;;;;;30.08;16.80;;;8.90;99.90;;;;;;5016287;28;20057;-79
2023/10/19 05:03:19;;;;;;;25.60;16.00;;;8.90;99.90;;;;;;5000834;28;20797;-79
2023/10/19 05:05:45;;;;;;;24.13;14.32;;;8.90;99.90;;;;;;5018301;28;20057;-80
2023/10/19 05:08:11;;;;;;;23.05;14.02;;;8.90;99.90;;;;;;5020028;28;20425;-82
2023/10/19 05:10:37;;;;;;;25.40;14.45;;;8.90;99.90;;;;;;5016335;28;20669;-83
2023/10/19 05:13:03;;;;;;;24.08;14.38;;;8.90;99.90;;;;;;4990978;28;20053;-82
2023/10/19 05:15:29;;;;;;;22.77;13.95;;;9.00;99.90;;;;;;5000495;28;20041;-83
2023/10/19 05:17:55;;;;;;;25.52;15.23;;;9.00;99.90;;;;;;5004270;28;20053;-82
2023/10/19 05:20:21;;;;;;;27.55;16.05;;;9.00;99.90;;;;;;5011225;28;20357;-85
2023/10/19 05:22:47;;;;;;;25.52;14.70;;;9.00;99.90;;;;;;4996129;28;20051;-84
2023/10/19 05:25:13;;;;;;;27.20;15.40;;;9.00;99.90;;;;;;5000520;28;20077;-83
2023/10/19 05:27:39;;;;;;;24.20;14.90;;;9.00;99.90;;;;;;5000218;28;20053;-82
2023/10/19 05:30:06;;;;;;;25.27;15.10;;;9.00;99.90;;;;;;5001349;28;20049;-82
2023/10/19 05:32:33;;;;;;;25.38;16.65;;;9.10;99.90;;;;;;5004771;28;20041;-82
2023/10/19 05:34:58;;;;;;;29.52;17.05;;;9.00;99.90;;;;;;5001731;28;20416;-81
2023/10/19 05:37:25;;;;;;;25.35;16.27;;;9.00;99.90;;;;;;5002314;28;20049;-82
2023/10/19 05:39:51;;;;;;;21.85;14.82;;;9.00;99.90;;;;;;5001745;28;20049;-81
2023/10/19 05:42:17;;;;;;;24.40;15.65;;;9.00;99.90;;;;;;4986743;28;20373;-80
2023/10/19 05:44:43;;;;;;;28.77;16.23;;;9.10;99.90;;;;;;5003048;28;20041;-81
2023/10/19 05:47:09;;;;;;;23.30;14.52;;;9.10;99.90;;;;;;4984273;28;20048;-82
2023/10/19 05:49:34;;;;;;;28.42;16.50;;;9.10;99.90;;;;;;4999642;28;20095;-81
2023/10/19 05:52:00;;;;;;;22.83;14.02;;;9.10;99.90;;;;;;5002733;28;20068;-81
2023/10/19 05:54:26;;;;;;;24.10;15.15;;;9.10;99.90;;;;;;5006467;28;20045;-81
2023/10/19 05:56:53;;;;;;;23.00;14.02;;;9.20;99.90;;;;;;5005218;28;20095;-74
2023/10/19 05:59:19;;;;;;;24.83;14.15;;;9.10;99.90;;;;;;5000604;28;20521;-81
2023/10/19 06:01:47;;;;;;;22.20;13.40;;;9.10;99.90;;;;;;5003655;28;20074;-81
2023/10/19 06:04:13;;;;;;;23.58;14.13;;;9.10;99.90;;;;;;5004964;28;20041;-78
2023/10/19 06:06:39;;;;;;;19.73;11.90;;;9.20;99.90;;;;;;5023397;28;20044;-81
2023/10/19 06:09:08;;;;;;;18.65;12.63;;;9.20;99.90;;;;;;5018605;28;20495;-82
2023/10/19 06:11:37;;;;;;;18.52;13.23;;;9.20;99.90;;;;;;5016273;28;20668;-82
2023/10/19 06:14:06;;;;;;;20.70;13.10;;;9.10;99.90;;;;;;5020593;28;20126;-81
2023/10/19 06:16:33;;;;;;;18.58;12.55;;;9.20;99.90;;;;;;5000726;28;20050;-81
2023/10/19 06:18:59;;;;;;;20.27;12.95;;;9.20;99.90;;;;;;5002281;28;20172;-81
2023/10/19 06:21:25;;;;;;;23.42;15.07;;;9.20;99.90;;;;;;5000376;28;20041;-81
2023/10/19 06:23:52;;;;;;;21.50;13.45;;;9.20;99.90;;;;;;5000587;28;20076;-80
2023/10/19 06:26:18;;;;;;;19.38;12.18;;;9.20;99.90;;;;;;5000636;28;20539;-81
2023/10/19 06:28:44;;;;;;;18.73;12.13;;;9.20;99.90;;;;;;4997389;28;20081;-81
2023/10/19 06:31:09;;;;;;;18.55;12.43;;;9.20;99.90;;;;;;4999454;28;20119;-81
2023/10/19 06:33:35;;;;;;;21.60;13.90;;;9.20;99.90;;;;;;5017027;28;21591;-81
2023/10/19 06:36:03;;;;;;;20.60;13.05;;;9.20;99.90;;;;;;5018307;28;20084;-81
2023/10/19 06:38:31;;;;;;;19.25;12.57;;;9.20;99.90;;;;;;5002946;28;20124;-83
2023/10/19 06:40:57;;;;;;;20.30;13.32;;;9.20;99.90;;;;;;5018699;28;20049;-80
2023/10/19 06:43:27;;;;;;;21.05;13.18;;;9.20;99.90;;;;;;4998997;28;20041;-80
2023/10/19 06:45:54;;;;;;;21.63;13.70;;;9.20;99.90;;;;;;5019490;28;20038;-80
2023/10/19 06:48:21;;;;;;;20.75;13.40;;;9.30;99.90;;;;;;4998301;28;20092;-80
2023/10/19 06:50:46;;;;;;;24.70;15.30;;;9.20;99.90;;;;;;5001731;28;20061;-80
2023/10/19 06:53:12;;;;;;;21.75;14.10;;;9.30;99.90;;;;;;4999714;28;20519;-80
2023/10/19 06:55:38;;;;;;;21.77;13.88;;;9.30;99.90;;;;;;4999436;28;20069;-79
2023/10/19 06:58:04;;;;;;;21.75;14.68;;;9.30;99.90;;;;;;5002816;28;20049;-80
2023/10/19 07:00:30;;;;;;;19.92;13.02;;;9.30;99.90;;;;;;5000909;28;20057;-81
2023/10/19 07:03:00;;;;;;;23.98;14.85;;;9.30;99.90;;;;;;4991135;28;20046;-80
2023/10/19 07:05:29;;;;;;;22.38;14.20;;;9.40;99.90;;;;;;4984722;28;20621;-80
2023/10/19 07:07:56;;;;;;;20.85;13.65;;;9.40;99.90;;;;;;5006067;28;20098;-80
2023/10/19 07:10:23;;;;;;;21.17;14.57;;;9.40;99.90;;;;;;5000171;28;20437;-80
2023/10/19 07:12:52;;;;;;;22.60;14.23;;;9.40;99.90;;;;;;5003060;28;20080;-79
2023/10/19 07:15:22;;;;;;;24.80;14.52;;;9.40;99.90;;;;;;5003585;28;20034;-81
2023/10/19 07:17:49;;;;;;;22.55;14.10;;;9.40;99.90;;;;;;5018832;28;20266;-80
2023/10/19 07:20:25;;;;;;;26.30;15.60;;;9.40;99.90;;;;;;5002398;28;20049;-80
2023/10/19 07:22:55;;;;;;;25.33;15.63;;;9.40;99.90;;;;;;5016122;28;20128;-81
2023/10/19 07:25:21;;;;;;;23.13;14.82;;;9.40;99.90;;;;;;5018307;28;20045;-82
2023/10/19 07:27:52;;;;;;;17.52;13.25;;;9.40;99.90;;;;;;5020639;28;20056;-76
2023/10/19 07:30:25;;;;;;;26.52;15.27;;;9.50;99.90;;;;;;5015366;28;20038;-77
2023/10/19 07:32:54;;;;;;;22.70;14.55;;;9.50;99.90;;;;;;5019051;28;20049;-80
2023/10/19 07:35:21;;;;;;;22.48;14.50;;;9.40;99.90;;;;;;5018382;28;20101;-80
2023/10/19 07:37:48;;;;;;;23.92;14.43;;;9.40;99.90;;;;;;5020005;28;20489;-79
2023/10/19 07:40:14;;;;;;;21.67;14.05;;;9.50;99.90;;;;;;5018986;28;20069;-80
2023/10/19 07:42:42;;;;;;;23.70;15.50;;;9.50;99.90;;;;;;5018449;28;20046;-80
2023/10/19 07:45:11;;;;;;;21.80;14.13;;;9.50;99.90;;;;;;5022510;28;20046;-80
2023/10/19 07:47:41;;;;;;;22.88;14.50;;;9.50;99.90;;;;;;5018206;28;20038;-79
2023/10/19 07:50:16;;;;;;;26.23;15.15;;;9.50;99.90;;;;;;5016500;28;20053;-80
2023/10/19 07:52:47;;;;;;;23.33;15.45;;;9.50;99.90;;;;;;5018378;28;20046;-80
2023/10/19 07:55:12;;;;;;;24.65;15.57;;;9.60;99.90;;;;;;5019061;28;20086;-80
2023/10/19 07:57:40;;;;;;;25.00;15.82;;;9.60;99.90;;;;;;5013905;28;20140;-80
2023/10/19 08:00:08;;;;;;;21.33;15.10;;;9.60;99.90;;;;;;5017359;28;20049;-80
2023/10/19 08:02:41;;;;;;;23.05;15.18;;;9.60;99.90;;;;;;5016156;28;20506;-80
2023/10/19 08:05:08;;;;;;;22.98;15.02;;;9.70;99.90;;;;;;5017263;28;20046;-80
2023/10/19 08:07:37;;;;;;;25.83;15.43;;;9.60;99.90;;;;;;5018983;28;20080;-79
2023/10/19 08:10:05;;;;;;;32.00;16.23;;;9.70;99.90;;;;;;5017712;28;20107;-80
2023/10/19 08:12:32;;;;;;;28.90;16.50;;;9.70;99.90;;;;;;5017599;28;20045;-80
2023/10/19 08:14:59;;;;;;;26.92;17.13;;;9.60;99.90;;;;;;4999432;28;20481;-80
2023/10/19 08:17:25;;;;;;;29.63;17.30;;;9.70;99.90;;;;;;5015895;28;20052;-80
2023/10/19 08:19:50;;;;;;;25.17;16.15;;;9.70;99.90;;;;;;5016354;28;20038;-80
2023/10/19 08:22:16;;;;;;;28.48;17.38;;;9.80;99.90;;;;;;5000395;28;20083;-80
2023/10/19 08:24:43;;;;;;;27.30;16.85;;;9.80;99.90;;;;;;5002808;28;20145;-80
2023/10/19 08:27:12;;;;;;;27.90;17.70;;;9.80;99.90;;;;;;5017135;28;20049;-80
2023/10/19 08:29:38;;;;;;;25.95;16.52;;;9.80;99.90;;;;;;5013516;28;20033;-80
2023/10/19 08:32:04;;;;;;;26.80;17.45;;;9.80;99.90;;;;;;5015420;28;20373;-80
2023/10/19 08:34:35;;;;;;;26.90;17.50;;;9.80;99.90;;;;;;5020670;28;20486;-80
2023/10/19 08:37:04;;;;;;;28.92;17.48;;;9.80;99.90;;;;;;5021939;28;20077;-80
2023/10/19 08:39:35;;;;;;;29.52;17.90;;;9.90;99.90;;;;;;4997711;28;20117;-80
2023/10/19 08:42:05;;;;;;;28.17;16.48;;;9.90;99.90;;;;;;5016645;28;20037;-81
2023/10/19 08:44:32;;;;;;;32.13;18.27;;;9.90;99.90;;;;;;5000425;28;20046;-81
2023/10/19 08:46:59;;;;;;;27.08;17.15;;;10.00;99.90;;;;;;5015820;28;20045;-81
2023/10/19 08:49:26;;;;;;;29.52;18.13;;;10.00;99.90;;;;;;5000627;28;20084;-73
2023/10/19 08:51:53;;;;;;;32.15;18.20;;;10.00;99.90;;;;;;5014584;28;20143;-74
2023/10/19 08:54:19;;;;;;;31.67;17.13;;;10.00;99.90;;;;;;5016230;28;20069;-74
2023/10/19 08:56:47;;;;;;;28.05;17.38;;;10.00;99.90;;;;;;5016925;28;20122;-74
2023/10/19 08:59:15;;;;;;;28.85;18.10;;;10.00;99.90;;;;;;5022111;28;20053;-74
2023/10/19 09:01:43;;;;;;;27.48;17.02;;;10.10;99.90;;;;;;5017047;28;20041;-70
2023/10/19 09:04:10;;;;;;;28.85;18.23;;;10.10;99.90;;;;;;4984698;28;20046;-71
2023/10/19 09:06:41;;;;;;;27.83;17.30;;;10.10;99.90;;;;;;5016716;28;20477;-73
2023/10/19 09:09:25;;;;;;;28.90;17.67;;;10.10;99.90;;;;;;5007233;28;20045;-72
2023/10/19 09:11:54;;;;;;;26.45;17.10;;;10.20;99.90;;;;;;4999900;28;20233;-73
2023/10/19 09:14:43;;;;;;;34.35;17.88;;;10.20;99.90;;;;;;5018606;28;20069;-72
2023/10/19 09:17:10;;;;;;;30.20;18.35;;;10.20;99.90;;;;;;5014519;28;20437;-73
2023/10/19 09:19:42;;;;;;;29.73;17.95;;;10.20;99.90;;;;;;5021444;28;20616;-72
2023/10/19 09:22:18;;;;;;;30.10;17.95;;;10.30;99.90;;;;;;5001223;28;20547;-72
2023/10/19 09:24:45;;;;;;;29.40;17.65;;;10.20;99.90;;;;;;4996918;28;20042;-72
2023/10/19 09:27:12;;;;;;;27.60;16.95;;;10.30;99.90;;;;;;4998099;28;20448;-73
2023/10/19 09:29:40;;;;;;;28.45;17.40;;;10.30;99.90;;;;;;5014120;28;20064;-72
2023/10/19 09:32:07;;;;;;;25.40;16.75;;;10.30;99.90;;;;;;5005970;28;20059;-72
2023/10/19 09:34:34;;;;;;;27.05;16.38;;;10.30;99.90;;;;;;4995907;28;20038;-69
2023/10/19 09:37:00;;;;;;;26.67;16.77;;;10.30;99.90;;;;;;5001569;28;20108;-70
2023/10/19 09:39:35;;;;;;;27.05;16.85;;;10.40;99.90;;;;;;4995727;28;20049;-70
2023/10/19 09:42:10;;;;;;;24.83;16.85;;;10.40;99.90;;;;;;4978793;28;20485;-70
2023/10/19 09:44:42;;;;;;;25.27;16.45;;;10.40;99.90;;;;;;4994257;28;20129;-71
2023/10/19 09:47:35;;;;;;;31.58;17.13;;;10.40;99.90;;;;;;5003351;28;20045;-70
2023/10/19 09:50:01;;;;;;;29.67;17.03;;;10.40;99.90;;;;;;4997454;28;20058;-70
2023/10/19 09:52:28;;;;;;;25.15;16.38;;;10.40;99.90;;;;;;4996469;28;20285;-70
2023/10/19 09:55:10;;;;;;;29.02;17.08;;;10.50;99.90;;;;;;4998200;28;20060;-71
2023/10/19 09:57:42;;;;;;;28.10;16.98;;;10.50;99.90;;;;;;5000532;28;20041;-71
2023/10/19 10:00:14;;;;;;;29.70;18.42;;;10.50;99.90;;;;;;5016422;28;20217;-71
2023/10/19 10:02:42;;;;;;;30.60;18.13;;;10.50;99.90;;;;;;5000797;28;20037;-71
2023/10/19 10:05:42;;;;;;;27.67;16.58;;;10.60;99.90;;;;;;5001463;28;20044;-71
2023/10/19 10:08:38;;;;;;;31.30;17.95;;;10.60;99.90;;;;;;4998599;28;20382;-71
2023/10/19 10:11:21;;;;;;;34.45;17.90;;;10.60;99.90;;;;;;4995709;28;20133;-71
2023/10/19 10:13:50;;;;;;;27.27;17.40;;;10.70;99.90;;;;;;4999174;28;20173;-71
2023/10/19 10:16:27;;;;;;;26.38;16.27;;;10.60;99.90;;;;;;5002346;28;20903;-72
2023/10/19 10:19:01;;;;;;;22.25;14.88;;;10.70;99.90;;;;;;5000798;28;20041;-72
2023/10/19 10:21:30;;;;;;;25.27;16.08;;;10.70;99.90;;;;;;5000428;28;20488;-71
2023/10/19 10:24:02;;;;;;;23.02;15.32;;;10.70;99.90;;;;;;5002600;28;20076;-71
2023/10/19 10:26:30;;;;;;;23.65;14.65;;;10.70;99.90;;;;;;5003142;28;20144;-71
2023/10/19 10:29:09;;;;;;;24.33;14.65;;;10.70;99.90;;;;;;5001191;28;20049;-69
2023/10/19 10:31:41;;;;;;;23.25;14.43;;;10.80;99.90;;;;;;4998793;28;20493;-69
2023/10/19 10:34:10;;;;;;;21.92;14.50;;;10.80;99.90;;;;;;4999730;28;20042;-71
2023/10/19 10:37:05;;;;;;;27.83;16.73;;;10.80;99.90;;;;;;4998339;28;20053;-70
2023/10/19 10:39:31;;;;;;;23.25;15.27;;;10.80;99.90;;;;;;5001820;28;20424;-71
2023/10/19 10:41:58;;;;;;;25.75;15.90;;;10.90;99.90;;;;;;5000421;28;20053;-71
2023/10/19 10:44:42;;;;;;;21.98;15.20;;;11.00;99.90;;;;;;4984193;28;20535;-71
2023/10/19 10:47:22;;;;;;;25.90;16.23;;;11.00;99.90;;;;;;4999093;28;20105;-71
2023/10/19 10:49:55;;;;;;;20.23;14.23;;;11.00;99.90;;;;;;5000414;28;20045;-70
2023/10/19 10:52:33;;;;;;;23.80;15.60;;;11.10;99.90;;;;;;4998804;28;20049;-71
2023/10/19 10:55:15;;;;;;;23.02;15.05;;;11.10;99.90;;;;;;4997913;28;20064;-70
2023/10/19 10:57:43;;;;;;;23.73;16.00;;;11.20;99.90;;;;;;4995530;28;20045;-71
2023/10/19 11:00:15;;;;;;;24.58;16.08;;;11.30;99.90;;;;;;5014547;28;20494;-72
2023/10/19 11:02:45;;;;;;;26.02;16.42;;;11.30;99.90;;;;;;4995333;28;20117;-71
2023/10/19 11:05:14;;;;;;;21.50;15.77;;;11.50;99.90;;;;;;4994973;28;20048;-70
2023/10/19 11:07:40;;;;;;;25.38;17.80;;;11.60;99.90;;;;;;4997288;28;20044;-72
2023/10/19 11:10:06;;;;;;;25.48;17.38;;;11.70;99.90;;;;;;5016374;28;20045;-72
2023/10/19 11:12:33;;;;;;;22.08;15.45;;;11.70;99.90;;;;;;4995588;28;20125;-71
2023/10/19 11:15:00;;;;;;;19.52;14.20;;;11.80;99.90;;;;;;4994015;28;20040;-72
2023/10/19 11:17:31;;;;;;;21.05;15.48;;;11.80;99.90;;;;;;4999222;28;20279;-71
2023/10/19 11:19:58;;;;;;;21.02;14.45;;;11.70;99.90;;;;;;4998792;28;20163;-71
2023/10/19 11:22:26;;;;;;;21.88;16.45;;;11.80;99.90;;;;;;5000976;28;20223;-71
2023/10/19 11:24:56;;;;;;;23.67;15.88;;;11.80;99.90;;;;;;4997199;28;20100;-71
2023/10/19 11:27:26;;;;;;;24.70;16.42;;;11.80;99.90;;;;;;4995964;28;20518;-72
2023/10/19 11:29:59;;;;;;;19.60;15.98;;;11.80;99.90;;;;;;4981955;28;20050;-71
2023/10/19 11:32:25;;;;;;;;;;;11.80;99.90;;;;;;4999484;28;20045;-71
2023/10/19 11:34:57;;;;;;;24.60;14.80;;;11.80;99.90;;;;;;4991752;28;20330;-69
2023/10/19 11:37:23;;;;;;;21.80;15.20;;;11.70;99.90;;;;;;4996984;28;20528;-71
2023/10/19 11:39:52;;;;;;;21.15;15.52;;;11.70;99.90;;;;;;5009003;28;20081;-70
2023/10/19 11:42:18;;;;;;;23.65;15.90;;;11.70;99.90;;;;;;5003973;28;20140;-70
2023/10/19 11:44:45;;;;;;;22.20;16.52;;;11.80;99.90;;;;;;5021066;28;20058;-70
2023/10/19 11:47:10;;;;;;;21.60;16.00;;;11.80;99.90;;;;;;5023415;28;20049;-71
2023/10/19 11:49:36;;;;;;;21.65;15.60;;;11.90;99.90;;;;;;5022421;28;20108;-70
2023/10/19 11:52:06;;;;;;;21.38;15.60;;;11.90;99.90;;;;;;5019820;28;20053;-70
2023/10/19 11:54:33;;;;;;;22.10;15.10;;;11.90;99.90;;;;;;5003428;28;20481;-71
2023/10/19 11:56:59;;;;;;;24.05;16.55;;;11.90;99.90;;;;;;5022128;28;20048;-71
2023/10/19 11:59:26;;;;;;;25.33;17.60;;;11.90;99.90;;;;;;5017493;28;20038;-71
2023/10/19 12:01:52;;;;;;;24.20;16.38;;;11.90;99.90;;;;;;4999151;28;20045;-71
2023/10/19 12:04:17;;;;;;;24.02;16.45;;;11.90;99.90;;;;;;5000648;28;20034;-71
2023/10/19 12:06:45;;;;;;;23.35;16.63;;;11.90;99.90;;;;;;5001988;28;20473;-73
2023/10/19 12:09:17;;;;;;;26.27;16.73;;;11.90;99.90;;;;;;4999855;28;20073;-73
2023/10/19 12:11:44;;;;;;;22.88;16.60;;;11.90;99.90;;;;;;4994661;28;20053;-74
2023/10/19 12:14:11;;;;;;;23.50;16.40;;;11.90;99.90;;;;;;5001303;28;20436;-73
2023/10/19 12:16:39;;;;;;;23.55;16.17;;;11.80;99.90;;;;;;4998902;28;20049;-74
2023/10/19 12:19:05;;;;;;;23.42;16.52;;;11.90;99.90;;;;;;4997582;28;20057;-73
2023/10/19 12:21:33;;;;;;;22.45;16.35;;;11.90;99.90;;;;;;5003451;28;20033;-73
2023/10/19 12:24:01;;;;;;;24.65;16.35;;;11.80;99.90;;;;;;5001378;28;20042;-73
2023/10/19 12:26:27;;;;;;;22.52;15.95;;;11.80;99.90;;;;;;4996464;28;20049;-73
2023/10/19 12:28:52;;;;;;;24.00;15.80;;;11.90;99.90;;;;;;5001281;28;20050;-74
2023/10/19 12:31:18;;;;;;;26.67;16.75;;;11.80;99.90;;;;;;5002172;28;20092;-76
2023/10/19 12:33:44;;;;;;;23.35;17.30;;;11.80;99.90;;;;;;4999914;28;20045;-73
2023/10/19 12:38:49;;;;;;;23.98;16.55;;;11.80;99.90;;;;;;4999952;28;20060;-73
2023/10/19 12:41:15;;;;;;;23.00;15.80;;;11.70;99.90;;;;;;5006083;28;20067;-73
2023/10/19 12:43:41;;;;;;;22.30;15.73;;;11.70;99.90;;;;;;4998882;28;20478;-74
2023/10/19 12:46:08;;;;;;;22.23;15.63;;;11.70;99.90;;;;;;5019156;28;20528;-74
2023/10/19 12:48:35;;;;;;;20.70;15.23;;;11.70;99.90;;;;;;4997048;28;20053;-74
2023/10/19 12:51:07;;;;;;;18.52;12.15;;;11.60;99.90;;;;;;4996666;28;20077;-74
2023/10/19 12:53:33;;;;;;;16.80;13.05;;;11.60;99.90;;;;;;5000658;28;20038;-74
2023/10/19 12:55:59;;;;;;;20.67;13.75;;;11.50;99.90;;;;;;4998779;28;20176;-74